createdAt,value
2023-05-12T00:01:22.029Z,66.90
2023-05-12T00:03:48.762Z,66.80
2023-05-12T00:06:15.573Z,66.75
2023-05-12T00:08:42.017Z,66.59
2023-05-12T00:11:08.610Z,67.18
2023-05-12T00:13:35.127Z,67.18
2023-05-12T00:16:02.261Z,67.26
2023-05-12T00:18:28.959Z,67.53
2023-05-12T00:20:56.940Z,67.62
2023-05-12T00:23:23.404Z,67.72
2023-05-12T00:25:50.107Z,67.57
2023-05-12T00:28:17.365Z,67.67
2023-05-12T00:30:43.861Z,67.27
2023-05-12T00:33:10.462Z,67.07
2023-05-12T00:35:37.077Z,67.16
2023-05-12T00:38:03.718Z,66.90
2023-05-12T00:40:30.195Z,67.01
2023-05-12T00:42:56.662Z,67.17
2023-05-12T00:45:23.819Z,68.12
2023-05-12T00:47:51.666Z,67.76
2023-05-12T00:50:18.688Z,68.28
2023-05-12T00:52:46.353Z,67.68
2023-05-12T00:55:12.821Z,67.89
2023-05-12T00:57:40.169Z,67.31
2023-05-12T01:00:07.032Z,67.11
2023-05-12T01:02:33.770Z,67.51
2023-05-12T01:05:00.532Z,67.67
2023-05-12T01:07:27.720Z,67.65
2023-05-12T01:09:55.579Z,67.38
2023-05-12T01:12:22.626Z,67.25
2023-05-12T01:14:49.793Z,67.54
2023-05-12T01:17:19.612Z,67.43
2023-05-12T01:19:50.389Z,67.12
2023-05-12T01:22:17.856Z,66.85
2023-05-12T01:24:52.691Z,67.14
2023-05-12T01:27:20.531Z,66.71
2023-05-12T01:29:47.465Z,66.97
2023-05-12T01:32:14.661Z,66.93
2023-05-12T01:34:42.648Z,66.56
2023-05-12T01:37:09.735Z,66.83
2023-05-12T01:39:36.752Z,66.85
2023-05-12T01:42:03.912Z,66.66
2023-05-12T01:44:30.479Z,66.64
2023-05-12T01:46:58.034Z,66.84
2023-05-12T01:49:24.467Z,66.51
2023-05-12T01:51:51.153Z,66.14
2023-05-12T01:54:17.776Z,65.88
2023-05-12T01:56:44.411Z,65.45
2023-05-12T01:59:14.068Z,64.96
2023-05-12T02:01:40.666Z,64.75
2023-05-12T02:04:11.457Z,64.73
2023-05-12T02:06:38.114Z,64.64
2023-05-12T02:09:05.025Z,64.56
2023-05-12T02:11:31.605Z,64.32
2023-05-12T02:13:58.734Z,64.04
2023-05-12T02:16:25.418Z,63.83
2023-05-12T02:18:52.069Z,63.45
2023-05-12T02:21:18.520Z,63.32
2023-05-12T02:23:45.104Z,63.32
2023-05-12T02:26:11.556Z,63.23
2023-05-12T02:28:38.369Z,63.05
2023-05-12T02:31:04.923Z,63.08
2023-05-12T02:33:31.427Z,62.90
2023-05-12T02:35:57.983Z,62.84
2023-05-12T02:38:24.805Z,62.75
2023-05-12T02:40:51.345Z,62.54
2023-05-12T02:43:17.781Z,62.42
2023-05-12T02:45:44.492Z,62.38
2023-05-12T02:48:11.371Z,62.20
2023-05-12T02:50:37.857Z,62.23
2023-05-12T02:53:04.452Z,62.44
2023-05-12T02:55:31.104Z,62.32
2023-05-12T02:57:57.702Z,62.54
2023-05-12T03:00:26.912Z,62.39
2023-05-12T03:02:53.542Z,62.61
2023-05-12T03:05:20.130Z,62.09
2023-05-12T03:07:48.672Z,62.09
2023-05-12T03:10:15.779Z,61.60
2023-05-12T03:12:42.235Z,61.49
2023-05-12T03:15:09.002Z,61.63
2023-05-12T03:17:36.278Z,62.11
2023-05-12T03:20:03.532Z,62.00
2023-05-12T03:22:30.379Z,61.73
2023-05-12T03:24:59.880Z,61.39
2023-05-12T03:27:26.334Z,61.88
2023-05-12T03:29:52.838Z,61.61
2023-05-12T03:32:22.438Z,61.50
2023-05-12T03:34:49.023Z,61.26
2023-05-12T03:37:16.246Z,61.03
2023-05-12T03:39:42.759Z,60.93
2023-05-12T03:42:09.236Z,60.78
2023-05-12T03:44:35.719Z,60.96
2023-05-12T03:47:02.269Z,61.17
2023-05-12T03:49:28.887Z,60.92
2023-05-12T03:51:55.372Z,60.90
2023-05-12T03:54:21.964Z,60.53
2023-05-12T03:56:48.411Z,60.24
2023-05-12T03:59:14.910Z,60.51
2023-05-12T04:01:41.436Z,60.26
2023-05-12T04:04:07.979Z,60.24
2023-05-12T04:06:42.498Z,59.80
2023-05-12T04:09:09.038Z,59.54
2023-05-12T04:11:35.534Z,59.25
2023-05-12T04:14:01.991Z,58.94
2023-05-12T04:16:28.549Z,58.55
2023-05-12T04:18:55.392Z,58.30
2023-05-12T04:21:21.912Z,58.28
2023-05-12T04:23:51.015Z,56.81
2023-05-12T04:26:17.494Z,57.40
2023-05-12T04:28:44.398Z,57.03
2023-05-12T04:31:10.919Z,56.65
2023-05-12T04:33:37.447Z,56.31
2023-05-12T04:36:04.083Z,56.44
2023-05-12T04:38:30.684Z,56.17
2023-05-12T04:40:57.780Z,55.99
2023-05-12T04:46:02.851Z,55.55
2023-05-12T04:48:29.425Z,55.08
2023-05-12T04:50:55.947Z,54.74
2023-05-12T04:56:12.573Z,54.32
2023-05-12T04:58:39.193Z,53.81
2023-05-12T05:01:13.468Z,54.26
2023-05-12T05:03:40.377Z,53.00
2023-05-12T05:06:07.113Z,53.19
2023-05-12T05:08:33.884Z,53.16
2023-05-12T05:11:00.396Z,51.86
2023-05-12T05:13:27.024Z,52.51
2023-05-12T05:15:54.131Z,52.29
2023-05-12T05:18:23.824Z,51.90
2023-05-12T05:20:57.336Z,51.74
2023-05-12T05:23:24.809Z,51.62
2023-05-12T05:25:51.570Z,50.75
2023-05-12T05:28:18.150Z,49.89
2023-05-12T05:30:44.699Z,48.43
2023-05-12T05:33:13.087Z,48.52
2023-05-12T05:35:39.718Z,48.24
2023-05-12T05:38:06.425Z,48.50
2023-05-12T05:40:44.889Z,47.04
2023-05-12T05:43:15.787Z,47.50
2023-05-12T05:45:42.501Z,47.29
2023-05-12T05:48:11.415Z,46.24
2023-05-12T05:50:38.026Z,46.91
2023-05-12T05:53:04.545Z,46.53
2023-05-12T05:55:31.082Z,46.00
2023-05-12T05:57:57.664Z,45.71
2023-05-12T06:00:24.201Z,45.46
2023-05-12T06:02:51.123Z,45.76
2023-05-12T06:05:18.159Z,45.96
2023-05-12T06:07:44.828Z,45.60
2023-05-12T06:10:11.762Z,44.93
2023-05-12T06:12:38.282Z,45.66
2023-05-12T06:15:07.412Z,45.17
2023-05-12T06:17:34.014Z,44.95
2023-05-12T06:20:03.056Z,44.76
2023-05-12T06:22:29.581Z,44.60
2023-05-12T06:24:56.133Z,44.20
2023-05-12T06:27:22.769Z,43.64
2023-05-12T06:29:49.422Z,43.07
2023-05-12T06:32:16.109Z,43.05
2023-05-12T06:34:42.681Z,42.25
2023-05-12T06:37:09.386Z,42.68
2023-05-12T06:39:36.213Z,42.34
2023-05-12T06:42:02.811Z,42.21
2023-05-12T06:44:29.687Z,41.86
2023-05-12T06:47:00.623Z,41.51
2023-05-12T06:49:27.806Z,41.25
2023-05-12T06:51:56.818Z,41.15
2023-05-12T06:54:23.459Z,40.55
2023-05-12T06:56:52.481Z,40.40
2023-05-12T06:59:21.463Z,40.46
2023-05-12T07:01:48.029Z,40.53
2023-05-12T07:04:14.670Z,40.53
2023-05-12T07:06:41.232Z,40.66
2023-05-12T07:09:07.796Z,40.29
2023-05-12T07:11:34.455Z,39.91
2023-05-12T07:14:00.988Z,39.79
2023-05-12T07:16:27.488Z,39.47
2023-05-12T07:18:54.022Z,39.10
2023-05-12T07:21:20.589Z,39.30
2023-05-12T07:23:47.085Z,39.07
2023-05-12T07:26:13.635Z,38.60
2023-05-12T07:28:40.233Z,38.10
2023-05-12T07:31:07.556Z,36.86
2023-05-12T07:33:34.955Z,37.86
2023-05-12T07:36:02.154Z,37.41
2023-05-12T07:38:29.060Z,36.74
2023-05-12T07:40:58.100Z,36.46
2023-05-12T07:43:24.626Z,36.50
2023-05-12T07:45:51.170Z,37.04
2023-05-12T07:48:17.730Z,36.80
2023-05-12T07:50:44.361Z,36.69
2023-05-12T07:53:14.029Z,35.90
2023-05-12T07:55:41.191Z,35.97
2023-05-12T07:58:07.709Z,35.75
2023-05-12T08:00:34.490Z,34.82
2023-05-12T08:03:01.426Z,34.64
2023-05-12T08:05:28.220Z,35.36
2023-05-12T08:07:54.789Z,35.46
2023-05-12T08:10:21.365Z,35.38
2023-05-12T08:12:48.957Z,35.05
2023-05-12T08:15:15.462Z,35.00
2023-05-12T08:17:42.226Z,35.03
2023-05-12T08:20:09.181Z,35.39
2023-05-12T08:22:35.768Z,35.44
2023-05-12T08:25:02.300Z,34.90
2023-05-12T08:27:29.677Z,35.22
2023-05-12T08:29:58.255Z,35.05
2023-05-12T08:32:25.545Z,35.15
2023-05-12T08:34:52.136Z,35.23
2023-05-12T08:37:18.836Z,34.80
2023-05-12T08:39:45.794Z,34.65
2023-05-12T08:42:18.765Z,34.78
2023-05-12T08:44:45.766Z,34.98
2023-05-12T08:47:14.628Z,34.43
2023-05-12T08:49:42.797Z,34.47
2023-05-12T08:52:09.827Z,34.25
2023-05-12T08:54:48.569Z,34.23
2023-05-12T08:57:19.571Z,33.96
2023-05-12T08:59:47.064Z,33.76
2023-05-12T09:02:16.619Z,34.13
2023-05-12T09:04:43.241Z,33.91
2023-05-12T09:07:10.451Z,34.34
2023-05-12T09:09:38.538Z,34.82
2023-05-12T09:12:07.180Z,34.17
2023-05-12T09:14:34.857Z,34.49
2023-05-12T09:17:04.977Z,34.48
2023-05-12T09:19:32.736Z,34.29
2023-05-12T09:22:00.474Z,34.27
2023-05-12T09:24:36.779Z,34.43
2023-05-12T09:27:03.934Z,34.18
2023-05-12T09:29:33.429Z,34.66
2023-05-12T09:32:05.418Z,34.68
2023-05-12T09:34:33.328Z,34.76
2023-05-12T09:37:01.391Z,34.34
2023-05-12T09:39:29.046Z,34.05
2023-05-12T09:41:58.755Z,34.31
2023-05-12T09:44:25.802Z,34.05
2023-05-12T09:46:52.836Z,34.16
2023-05-12T09:49:20.540Z,33.79
2023-05-12T09:51:47.473Z,34.03
2023-05-12T09:54:24.065Z,34.36
2023-05-12T09:56:51.914Z,34.81
2023-05-12T09:59:20.209Z,34.46
2023-05-12T10:01:47.726Z,33.67
2023-05-12T10:04:14.446Z,33.01
2023-05-12T10:06:45.735Z,33.10
2023-05-12T10:09:18.444Z,33.19
2023-05-12T10:11:45.381Z,32.90
2023-05-12T10:14:13.146Z,32.79
2023-05-12T10:16:40.950Z,32.69
2023-05-12T10:19:08.766Z,33.77
2023-05-12T10:21:36.720Z,34.15
2023-05-12T10:24:06.430Z,35.76
2023-05-12T10:26:37.156Z,35.67
2023-05-12T10:29:04.174Z,35.23
2023-05-12T10:31:31.045Z,34.70
2023-05-12T10:34:00.470Z,34.39
2023-05-12T10:36:27.279Z,34.15
2023-05-12T10:38:54.821Z,34.17
2023-05-12T10:41:31.702Z,34.61
2023-05-12T10:43:58.680Z,35.06
2023-05-12T10:46:26.759Z,35.21
2023-05-12T10:49:00.126Z,34.97
2023-05-12T10:51:46.949Z,35.34
2023-05-12T10:54:22.213Z,35.71
2023-05-12T10:56:49.058Z,35.26
2023-05-12T10:59:19.307Z,36.29
2023-05-12T11:02:03.802Z,36.30
2023-05-12T11:04:48.137Z,36.04
2023-05-12T11:07:16.495Z,35.92
2023-05-12T11:09:56.753Z,36.52
2023-05-12T11:12:26.910Z,36.81
2023-05-12T11:14:53.496Z,36.91
2023-05-12T11:17:20.001Z,37.04
2023-05-12T11:19:50.500Z,37.23
2023-05-12T11:22:18.006Z,37.83
2023-05-12T11:24:44.505Z,38.89
2023-05-12T11:27:15.741Z,39.57
2023-05-12T11:29:43.692Z,39.60
2023-05-12T11:32:11.277Z,39.64
2023-05-12T11:34:38.374Z,39.77
2023-05-12T11:37:05.462Z,39.81
2023-05-12T11:39:32.522Z,39.96
2023-05-12T11:42:12.089Z,39.79
2023-05-12T11:44:46.849Z,39.93
2023-05-12T11:47:14.077Z,40.80
2023-05-12T11:49:55.898Z,42.16
2023-05-12T11:52:23.403Z,43.88
2023-05-12T11:54:59.184Z,45.06
2023-05-12T11:57:29.994Z,46.27
2023-05-12T11:59:57.995Z,46.16
2023-05-12T12:02:24.549Z,48.83
2023-05-12T12:04:51.157Z,47.88
2023-05-12T12:07:28.240Z,49.56
2023-05-12T12:09:59.260Z,49.06
2023-05-12T12:12:26.625Z,49.24
2023-05-12T12:14:53.193Z,49.32
2023-05-12T12:17:30.855Z,49.15
2023-05-12T12:19:57.779Z,50.41
2023-05-12T12:22:24.393Z,51.99
2023-05-12T12:24:51.237Z,51.89
2023-05-12T12:27:17.774Z,53.39
2023-05-12T12:29:44.414Z,53.67
2023-05-12T12:32:11.082Z,53.53
2023-05-12T12:34:37.847Z,53.02
2023-05-12T12:37:05.238Z,52.89
2023-05-12T12:39:34.565Z,54.19
2023-05-12T12:42:01.184Z,55.22
2023-05-12T12:44:27.730Z,54.98
2023-05-12T12:46:54.396Z,55.63
2023-05-12T12:49:21.110Z,55.58
2023-05-12T12:51:47.685Z,55.95
2023-05-12T12:54:17.260Z,56.59
2023-05-12T12:56:44.521Z,57.51
2023-05-12T12:59:15.181Z,57.10
2023-05-12T13:01:43.833Z,57.61
2023-05-12T13:04:10.531Z,57.76
2023-05-12T13:06:37.081Z,57.92
2023-05-12T13:09:04.210Z,56.61
2023-05-12T13:11:30.935Z,56.73
2023-05-12T13:13:57.506Z,57.49
2023-05-12T13:16:24.027Z,57.96
2023-05-12T13:18:50.793Z,57.08
2023-05-12T13:21:18.982Z,57.42
2023-05-12T13:23:45.435Z,57.83
2023-05-12T13:26:12.129Z,57.79
2023-05-12T13:28:38.676Z,58.44
2023-05-12T13:31:06.170Z,58.34
2023-05-12T13:33:32.812Z,58.69
2023-05-12T13:36:01.401Z,59.36
2023-05-12T13:38:27.960Z,59.77
2023-05-12T13:40:57.467Z,59.50
2023-05-12T13:43:23.988Z,60.86
2023-05-12T13:45:51.105Z,60.94
2023-05-12T13:48:17.889Z,61.48
2023-05-12T13:50:44.462Z,60.57
2023-05-12T13:53:12.868Z,61.45
2023-05-12T13:55:41.724Z,62.12
2023-05-12T13:58:08.203Z,61.53
2023-05-12T14:00:34.906Z,62.54
2023-05-12T14:03:02.812Z,62.19
2023-05-12T14:05:29.568Z,63.20
2023-05-12T14:07:56.292Z,63.94
2023-05-12T14:10:22.859Z,63.81
2023-05-12T14:12:49.497Z,62.68
2023-05-12T14:17:45.514Z,63.53
2023-05-12T14:20:12.638Z,63.16
2023-05-12T14:22:39.227Z,64.45
2023-05-12T14:25:06.348Z,64.10
2023-05-12T14:27:33.166Z,63.79
2023-05-12T14:29:59.824Z,64.85
2023-05-12T14:32:26.953Z,65.21
2023-05-12T14:34:53.491Z,65.07
2023-05-12T14:37:20.338Z,65.26
2023-05-12T14:39:49.933Z,65.16
2023-05-12T14:42:17.936Z,65.78
2023-05-12T14:44:44.616Z,65.83
2023-05-12T14:47:11.112Z,66.32
2023-05-12T14:49:37.617Z,65.57
2023-05-12T14:52:07.513Z,65.36
2023-05-12T14:54:34.419Z,65.58
2023-05-12T14:57:01.092Z,65.28
2023-05-12T14:59:29.422Z,64.73
2023-05-12T15:01:56.071Z,64.58
2023-05-12T15:04:22.696Z,65.07
2023-05-12T15:06:49.268Z,65.96
2023-05-12T15:09:15.841Z,65.67
2023-05-12T15:11:45.492Z,65.64
2023-05-12T15:14:12.943Z,65.58
2023-05-12T15:16:39.565Z,66.27
2023-05-12T15:19:06.124Z,66.93
2023-05-12T15:21:34.849Z,66.64
2023-05-12T15:24:02.049Z,66.77
2023-05-12T15:26:33.808Z,67.11
2023-05-12T15:29:01.867Z,67.38
2023-05-12T15:31:28.978Z,67.86
2023-05-12T15:33:56.488Z,68.20
2023-05-12T15:36:23.048Z,68.61
2023-05-12T15:38:49.528Z,68.01
2023-05-12T15:41:16.082Z,68.21
2023-05-12T15:43:42.560Z,69.49
2023-05-12T15:46:10.976Z,68.81
2023-05-12T15:48:37.797Z,68.69
2023-05-12T15:51:04.444Z,68.56
2023-05-12T15:53:31.356Z,68.41
2023-05-12T15:56:01.288Z,68.32
2023-05-12T15:58:28.442Z,67.54
2023-05-12T16:00:55.279Z,67.56
2023-05-12T16:03:21.991Z,67.16
2023-05-12T16:05:48.928Z,66.99
2023-05-12T16:08:15.478Z,66.99
2023-05-12T16:10:41.950Z,66.43
2023-05-12T16:13:08.897Z,65.69
2023-05-12T16:15:35.576Z,65.47
2023-05-12T16:18:02.277Z,64.36
2023-05-12T16:20:29.966Z,64.42
2023-05-12T16:22:56.523Z,64.41
2023-05-12T16:25:23.265Z,63.69
2023-05-12T16:27:50.113Z,63.00
2023-05-12T16:30:19.782Z,62.76
2023-05-12T16:32:49.735Z,62.84
2023-05-12T16:35:17.218Z,63.21
2023-05-12T16:37:43.789Z,62.76
2023-05-12T16:40:15.604Z,62.65
2023-05-12T16:42:42.796Z,62.46
2023-05-12T16:45:11.252Z,62.85
2023-05-12T16:47:37.928Z,62.85
2023-05-12T16:50:04.713Z,62.71
2023-05-12T16:52:31.240Z,63.07
2023-05-12T16:54:58.029Z,63.47
2023-05-12T16:57:27.015Z,63.93
2023-05-12T16:59:53.815Z,64.72
2023-05-12T17:02:20.652Z,64.44
2023-05-12T17:04:47.250Z,64.64
2023-05-12T17:07:13.736Z,64.53
2023-05-12T17:09:40.287Z,64.43
2023-05-12T17:12:07.950Z,63.97
2023-05-12T17:14:37.261Z,64.31
2023-05-12T17:17:03.794Z,64.07
2023-05-12T17:19:30.481Z,63.96
2023-05-12T17:21:57.290Z,63.44
2023-05-12T17:24:27.022Z,63.66
2023-05-12T17:26:53.890Z,62.93
2023-05-12T17:29:20.785Z,62.47
2023-05-12T17:31:47.444Z,62.47
2023-05-12T17:34:14.113Z,62.59
2023-05-12T17:36:40.759Z,62.22
2023-05-12T17:39:07.615Z,62.32
2023-05-12T17:41:37.096Z,61.60
2023-05-12T17:44:04.337Z,61.80
2023-05-12T17:46:31.322Z,61.57
2023-05-12T17:48:58.204Z,61.54
2023-05-12T17:51:24.859Z,61.86
2023-05-12T17:53:53.096Z,62.14
2023-05-12T17:56:19.705Z,62.26
2023-05-12T17:58:46.672Z,61.94
2023-05-12T18:01:13.721Z,62.40
2023-05-12T18:03:42.410Z,62.03
2023-05-12T18:06:12.810Z,62.06
2023-05-12T18:08:39.968Z,61.74
2023-05-12T18:13:47.422Z,61.97
2023-05-12T18:16:25.237Z,61.66
2023-05-12T18:18:55.643Z,61.98
2023-05-12T18:21:22.365Z,61.78
2023-05-12T18:23:49.004Z,62.02
2023-05-12T18:26:15.482Z,61.87
2023-05-12T18:28:42.113Z,61.63
2023-05-12T18:31:15.609Z,62.03
2023-05-12T18:33:45.753Z,62.35
2023-05-12T18:36:15.157Z,62.20
2023-05-12T18:38:42.021Z,62.00
2023-05-12T18:41:09.146Z,62.20
2023-05-12T18:43:37.717Z,62.55
2023-05-12T18:46:04.714Z,62.91
2023-05-12T18:48:32.199Z,62.83
2023-05-12T18:50:58.803Z,63.22
2023-05-12T18:53:25.586Z,63.75
2023-05-12T18:55:52.067Z,63.31
2023-05-12T18:58:18.613Z,63.19
2023-05-12T19:00:45.312Z,63.17
2023-05-12T19:03:11.945Z,63.33
2023-05-12T19:05:44.573Z,63.09
2023-05-12T19:08:11.267Z,63.43
2023-05-12T19:10:39.685Z,63.69
2023-05-12T19:13:06.796Z,63.52
2023-05-12T19:15:33.596Z,63.97
2023-05-12T19:18:00.301Z,63.70
2023-05-12T19:20:28.216Z,63.59
2023-05-12T19:22:55.039Z,64.76
2023-05-12T19:25:22.957Z,64.46
2023-05-12T19:27:50.128Z,64.75
2023-05-12T19:30:16.732Z,65.08
2023-05-12T19:32:46.019Z,65.14
2023-05-12T19:35:15.817Z,64.94
2023-05-12T19:37:42.718Z,65.39
2023-05-12T19:40:10.836Z,65.19
2023-05-12T19:42:38.176Z,64.93
2023-05-12T19:45:05.162Z,64.92
2023-05-12T19:47:33.396Z,64.78
2023-05-12T19:50:00.414Z,64.81
2023-05-12T19:52:31.291Z,65.31
2023-05-12T19:55:07.462Z,65.02
2023-05-12T19:57:34.004Z,64.71
2023-05-12T20:00:00.601Z,65.03
2023-05-12T20:02:30.909Z,65.01
2023-05-12T20:05:00.881Z,64.56
2023-05-12T20:07:39.317Z,64.39
2023-05-12T20:10:06.093Z,64.53
2023-05-12T20:12:32.618Z,64.45
2023-05-12T20:14:59.116Z,64.56
2023-05-12T20:17:25.719Z,64.90
2023-05-12T20:19:52.485Z,64.82
2023-05-12T20:22:19.070Z,64.87
2023-05-12T20:24:45.738Z,64.92
2023-05-12T20:27:14.485Z,65.31
2023-05-12T20:29:41.940Z,65.29
2023-05-12T20:32:08.497Z,65.62
2023-05-12T20:34:39.368Z,65.82
2023-05-12T20:37:06.041Z,66.24
2023-05-12T20:39:35.021Z,66.37
2023-05-12T20:42:01.597Z,66.41
2023-05-12T20:44:29.983Z,66.37
2023-05-12T20:46:56.594Z,66.21
2023-05-12T20:49:23.159Z,66.00
2023-05-12T20:51:49.644Z,66.03
2023-05-12T20:54:16.253Z,66.05
2023-05-12T20:56:42.701Z,66.24
2023-05-12T20:59:09.262Z,65.92
2023-05-12T21:01:35.818Z,66.07
2023-05-12T21:04:02.340Z,66.11
2023-05-12T21:06:29.014Z,66.45
2023-05-12T21:08:56.763Z,66.27
2023-05-12T21:11:23.196Z,66.26
2023-05-12T21:13:49.677Z,66.43
2023-05-12T21:16:16.538Z,66.11
2023-05-12T21:18:43.160Z,65.84
2023-05-12T21:21:09.685Z,66.14
2023-05-12T21:23:37.559Z,66.18
2023-05-12T21:26:06.371Z,65.94
2023-05-12T21:28:34.135Z,65.90
2023-05-12T21:31:00.641Z,65.94
2023-05-12T21:33:27.809Z,65.83
2023-05-12T21:35:54.310Z,66.16
2023-05-12T21:38:23.308Z,65.95
2023-05-12T21:40:54.526Z,65.67
2023-05-12T21:43:24.161Z,65.54
2023-05-12T21:45:50.673Z,65.54
2023-05-12T21:48:17.904Z,65.68
2023-05-12T21:50:44.482Z,65.28
2023-05-12T21:53:11.024Z,65.04
2023-05-12T21:55:37.538Z,65.49
2023-05-12T21:58:03.980Z,65.50
2023-05-12T22:00:30.733Z,65.69
2023-05-12T22:02:57.272Z,66.16
2023-05-12T22:05:23.983Z,66.02
2023-05-12T22:07:50.540Z,66.32
2023-05-12T22:10:17.136Z,66.56
2023-05-12T22:12:43.708Z,66.45
2023-05-12T22:15:13.095Z,66.07
2023-05-12T22:17:39.576Z,66.16
2023-05-12T22:20:09.596Z,66.29
2023-05-12T22:22:36.073Z,66.16
2023-05-12T22:25:04.290Z,65.82
2023-05-12T22:27:30.929Z,66.13
2023-05-12T22:29:57.414Z,66.31
2023-05-12T22:32:23.993Z,67.01
2023-05-12T22:34:52.430Z,67.54
2023-05-12T22:37:18.992Z,67.55
2023-05-12T22:39:48.204Z,67.31
2023-05-12T22:42:14.686Z,67.26
2023-05-12T22:44:41.179Z,67.30
2023-05-12T22:47:08.152Z,67.36
2023-05-12T22:49:36.197Z,67.35
2023-05-12T22:52:02.655Z,66.86
2023-05-12T22:54:29.095Z,66.86
2023-05-12T22:56:56.030Z,67.42
2023-05-12T22:59:22.516Z,67.28
2023-05-12T23:01:49.040Z,67.42
2023-05-12T23:04:15.768Z,67.42
2023-05-12T23:06:42.390Z,67.30
2023-05-12T23:09:09.589Z,67.42
2023-05-12T23:11:38.455Z,67.76
2023-05-12T23:14:04.996Z,67.71
2023-05-12T23:16:31.585Z,67.80
2023-05-12T23:18:58.190Z,67.88
2023-05-12T23:21:24.738Z,67.93
2023-05-12T23:23:51.261Z,67.64
2023-05-12T23:26:17.724Z,67.69
2023-05-12T23:28:44.194Z,67.68
2023-05-12T23:31:10.650Z,68.08
2023-05-12T23:33:37.178Z,67.68
2023-05-12T23:36:03.852Z,67.98
2023-05-12T23:38:30.402Z,67.93
2023-05-12T23:40:56.934Z,67.81
2023-05-12T23:43:23.544Z,68.16
2023-05-12T23:45:50.212Z,67.78
2023-05-12T23:48:16.704Z,67.97
2023-05-12T23:50:43.164Z,68.14
2023-05-12T23:53:09.613Z,67.63
2023-05-12T23:55:40.147Z,67.79
2023-05-12T23:58:06.960Z,67.50
